Waynesburg, PA

4:04 PM EST on February 13, 2016 (GMT -0500)
Shadyside, Franklin Twp | | Change Station
CLOSE
Current Station
Personal Weather Station
Location: Waynesburg, PA
Elevation: 1099 ft
Nearby Weather Stations
Active Advisory: Wind Chill Advisory Active Notice: Public Information Statement

Elev 1099 ft 39.93 °N, 80.17 °W | Updated 13 minutes ago

Overcast
Overcast
12.5 °F
Feels Like 0 °F
N
9.0
Wind Variable Wind from NNW
Gusts 9.0 mph

Today
High -- | Low -- °F
--% Chance of Precip.
Yesterday
High -- | Low -- °F
Precip. -- in
Pressure 30.35 in
Visibility 10.0 miles
Clouds Few 3600 ft
Mostly Cloudy 4800 ft
Overcast 5000 ft
Windchill 0 °F
Dew Point -1 °F
Humidity 55%
Rainfall 0.00 in
Snow Depth Not available.
7:16 AM 5:53 PM
Waxing Crescent, 34% visible
METAR KAFJ 132055Z AUTO 29010G18KT 10SM FEW036 BKN048 OVC050 M12/M22 A3035 RMK AO1 52003
Pressure 30.35 in
Visibility 10.0 miles
Clouds Few 3600 ft
Mostly Cloudy 4800 ft
Overcast 5000 ft
Windchill 0 °F
Dew Point -1 °F
Humidity 55%
Rainfall 0.00 in
Snow Depth Not available.
7:16 AM 5:53 PM
Waxing Crescent, 34% visible
METAR KAFJ 132055Z AUTO 29010G18KT 10SM FEW036 BKN048 OVC050 M12/M22 A3035 RMK AO1 52003

10-Day Weather Forecast

Almanac

Astronomy

Feb. 13, 2016 Rise Set
Actual Time
Civil Twilight
Nautical Twilight
Astronomical Twilight
Moon
Length of Visible Light
Length of Day
Tomorrow will be .
, % of the Moon is Illuminated

Today's Extremes

State Highs State Lows

Community

WunderPhotos

Upload Photos

1,892,667 photos uploaded!

WunderBlog® & News

Nearby

Air Quality

  Air Quality AQ Index Pollutant
Not available.

Snow Depth

Station Depth Elevation

Earthquake Activity

City Distance Mag. Time & Date
Minimum magnitude displayed is 2.5.

Coastal Water Temperatures

Place Temperature

Stations

Nearby Weather Stations

Station Location Temp. Windchill Dew Point Humidity Wind Precip. Elev Updated Type
                   

Watches & Warnings

Wind Chill Advisory
Issued: 2:50 PM EST Feb. 13, 2016 – National Weather Service

... Wind Chill Advisory remains in effect until 9 am EST Sunday...

* wind chill... as low as 14 below due to temperatures 4 below to
12 above zero... and winds west 5 to 15 mph with gusts up to 25
mph.

* Impacts... frost bite and hypothermia are possible if
precautions are not taken.